Time;durP1;ratioP1;P1;durP2;ratioP2;P2;SDS_P1;SDS_P2;PMS_P1;PMS_P2;Temp;Humidity;BMP_temperature;BMP_pressure;BME280_temperature;BME280_humidity;BME280_pressure;Samples;Min_cycle;Max_cycle;Signal;HPM_P1;HPM_P2
2023/05/11 00:02:06;;;;;;;33.65;19.48;;;;;;;;;;5097070;27;20136;-78
2023/05/11 00:04:32;;;;;;;27.63;17.77;;;;;;;;;;5097374;27;20083;-78
2023/05/11 00:06:58;;;;;;;25.95;17.83;;;;;;;;;;5064888;28;20068;-79
2023/05/11 00:09:24;;;;;;;24.30;16.75;;;;;;;;;;5089316;28;20555;-79
2023/05/11 00:11:53;;;;;;;29.88;18.23;;;;;;;;;;5064959;28;20126;-79
2023/05/11 00:14:19;;;;;;;32.45;18.88;;;;;;;;;;5097739;28;20135;-79
2023/05/11 00:16:45;;;;;;;27.83;18.35;;;;;;;;;;5075735;28;20042;-77
2023/05/11 00:19:11;;;;;;;32.08;19.60;;;;;;;;;;5094383;28;20058;-78
2023/05/11 00:21:37;;;;;;;27.58;18.88;;;;;;;;;;5088571;28;20792;-78
2023/05/11 00:24:05;;;;;;;35.65;19.95;;;;;;;;;;5092433;28;20100;-79
2023/05/11 00:26:31;;;;;;;28.65;18.95;;;;;;;;;;5087306;28;20036;-79
2023/05/11 00:28:57;;;;;;;35.88;21.27;;;;;;;;;;5062685;28;20044;-78
2023/05/11 00:31:23;;;;;;;38.85;22.90;;;;;;;;;;5098934;27;20036;-78
2023/05/11 00:33:49;;;;;;;43.42;24.67;;;;;;;;;;5090277;28;20554;-79
2023/05/11 00:36:15;;;;;;;44.80;24.02;;;;;;;;;;5081456;28;20553;-79
2023/05/11 00:38:41;;;;;;;41.35;24.42;;;;;;;;;;5085353;27;20033;-78
2023/05/11 00:41:07;;;;;;;46.92;24.25;;;;;;;;;;5059814;28;20036;-79
2023/05/11 00:43:33;;;;;;;47.30;24.27;;;;;;;;;;5082417;28;20040;-78
2023/05/11 00:46:00;;;;;;;43.83;23.58;;;;;;;;;;5081002;28;20039;-79
2023/05/11 00:48:26;;;;;;;47.97;24.70;;;;;;;;;;5091792;27;20102;-79
2023/05/11 00:50:53;;;;;;;44.90;24.85;;;;;;;;;;5088152;28;20062;-79
2023/05/11 00:53:19;;;;;;;40.75;23.27;;;;;;;;;;5084776;28;20044;-79
2023/05/11 00:55:45;;;;;;;45.17;24.45;;;;;;;;;;5077536;28;20039;-79
2023/05/11 00:58:11;;;;;;;48.25;24.95;;;;;;;;;;5093585;27;20068;-77
2023/05/11 01:00:37;;;;;;;52.17;25.92;;;;;;;;;;5093960;27;20056;-79
2023/05/11 01:03:03;;;;;;;44.20;23.80;;;;;;;;;;5089427;27;20048;-78
2023/05/11 01:05:33;;;;;;;131.68;28.55;;;;;;;;;;5097072;27;20044;-79
2023/05/11 01:08:05;;;;;;;37.80;22.02;;;;;;;;;;5069705;28;20044;-79
2023/05/11 01:10:40;;;;;;;45.47;23.58;;;;;;;;;;5106757;27;20051;-79
2023/05/11 01:13:09;;;;;;;44.67;24.13;;;;;;;;;;5092957;28;20055;-78
2023/05/11 01:15:39;;;;;;;47.08;24.38;;;;;;;;;;5101032;27;20040;-77
2023/05/11 01:18:24;;;;;;;45.10;24.10;;;;;;;;;;5074886;28;20452;-78
2023/05/11 01:20:52;;;;;;;52.00;24.67;;;;;;;;;;5076350;28;20032;-79
2023/05/11 01:23:21;;;;;;;52.78;24.52;;;;;;;;;;5075816;28;20051;-79
2023/05/11 01:26:14;;;;;;;65.70;25.00;;;;;;;;;;5082669;28;20050;-79
2023/05/11 01:29:02;;;;;;;45.53;23.58;;;;;;;;;;5068836;28;20051;-79
2023/05/11 01:31:30;;;;;;;48.20;24.30;;;;;;;;;;5084225;28;20047;-79
2023/05/11 01:34:05;;;;;;;52.97;24.83;;;;;;;;;;5090219;28;20066;-78
2023/05/11 01:36:38;;;;;;;51.25;24.38;;;;;;;;;;5082130;28;20058;-79
2023/05/11 01:39:06;;;;;;;65.90;25.08;;;;;;;;;;5083549;28;20043;-78
2023/05/11 01:41:34;;;;;;;45.42;23.23;;;;;;;;;;5080472;28;20039;-79
2023/05/11 01:44:02;;;;;;;68.38;26.65;;;;;;;;;;5095845;27;20044;-79
2023/05/11 01:46:30;;;;;;;62.45;26.08;;;;;;;;;;5083711;28;20090;-80
2023/05/11 01:48:58;;;;;;;69.70;26.33;;;;;;;;;;5094890;27;20047;-79
2023/05/11 01:51:26;;;;;;;102.90;28.33;;;;;;;;;;5101193;27;20056;-79
2023/05/11 01:53:53;;;;;;;222.68;32.00;;;;;;;;;;5066681;28;20083;-79
2023/05/11 01:56:19;;;;;;;67.63;26.73;;;;;;;;;;5089349;28;20170;-78
2023/05/11 01:58:46;;;;;;;52.67;24.23;;;;;;;;;;5099836;28;20118;-78
2023/05/11 02:01:13;;;;;;;61.85;24.95;;;;;;;;;;5064403;28;20051;-80
2023/05/11 02:03:41;;;;;;;57.55;24.55;;;;;;;;;;5073856;28;20532;-78
2023/05/11 02:06:09;;;;;;;57.40;25.58;;;;;;;;;;5088120;28;20052;-79
2023/05/11 02:08:37;;;;;;;69.75;26.33;;;;;;;;;;5099564;28;20040;-79
2023/05/11 02:11:03;;;;;;;59.05;25.77;;;;;;;;;;5077305;28;20106;-78
2023/05/11 02:13:30;;;;;;;53.38;25.20;;;;;;;;;;5101815;28;20045;-79
2023/05/11 02:15:57;;;;;;;46.88;24.58;;;;;;;;;;5099564;28;20041;-78
2023/05/11 02:18:23;;;;;;;73.82;25.30;;;;;;;;;;5102721;28;20036;-79
2023/05/11 02:20:50;;;;;;;55.30;24.08;;;;;;;;;;5105020;28;20071;-78
2023/05/11 02:23:16;;;;;;;89.43;26.00;;;;;;;;;;5063900;28;20613;-78
2023/05/11 02:25:42;;;;;;;76.97;26.83;;;;;;;;;;5105892;28;20218;-80
2023/05/11 02:28:08;;;;;;;61.97;25.88;;;;;;;;;;5111960;27;20047;-79
2023/05/11 02:30:38;;;;;;;42.92;21.90;;;;;;;;;;5079093;28;20135;-79
2023/05/11 02:33:06;;;;;;;37.85;20.35;;;;;;;;;;5092737;28;20119;-78
2023/05/11 02:35:33;;;;;;;43.70;20.42;;;;;;;;;;5085900;28;20399;-78
2023/05/11 02:38:01;;;;;;;33.38;20.10;;;;;;;;;;5081713;28;20039;-78
2023/05/11 02:40:31;;;;;;;48.60;23.83;;;;;;;;;;5079584;28;20037;-79
2023/05/11 02:43:06;;;;;;;48.67;23.88;;;;;;;;;;5086909;28;20042;-78
2023/05/11 02:45:33;;;;;;;54.15;24.92;;;;;;;;;;5081613;28;20110;-79
2023/05/11 02:48:00;;;;;;;53.33;25.00;;;;;;;;;;5080694;28;20056;-79
2023/05/11 02:50:29;;;;;;;67.70;26.63;;;;;;;;;;5079399;28;20591;-78
2023/05/11 02:52:56;;;;;;;68.35;27.13;;;;;;;;;;5086645;28;20082;-79
2023/05/11 02:55:23;;;;;;;72.57;28.77;;;;;;;;;;5084583;28;20072;-79
2023/05/11 02:57:49;;;;;;;89.80;32.00;;;;;;;;;;5080592;28;20044;-78
2023/05/11 03:00:16;;;;;;;72.28;26.50;;;;;;;;;;5107939;27;20059;-80
2023/05/11 03:02:42;;;;;;;71.22;27.52;;;;;;;;;;5089242;28;20040;-78
2023/05/11 03:05:08;;;;;;;80.07;29.02;;;;;;;;;;5084857;28;20175;-79
2023/05/11 03:07:34;;;;;;;78.63;28.60;;;;;;;;;;5079901;28;20055;-79
2023/05/11 03:10:01;;;;;;;81.20;29.45;;;;;;;;;;5093844;28;20048;-79
2023/05/11 03:12:30;;;;;;;78.53;29.13;;;;;;;;;;5087857;28;20045;-80
2023/05/11 03:14:58;;;;;;;58.03;26.58;;;;;;;;;;5080485;28;20739;-79
2023/05/11 03:17:24;;;;;;;81.50;29.85;;;;;;;;;;5076404;28;20036;-79
2023/05/11 03:19:50;;;;;;;96.97;31.65;;;;;;;;;;5084546;28;20071;-80
2023/05/11 03:22:16;;;;;;;107.93;33.42;;;;;;;;;;5081617;28;20134;-79
2023/05/11 03:24:43;;;;;;;139.10;35.47;;;;;;;;;;5093342;28;20163;-79
2023/05/11 03:27:10;;;;;;;149.88;35.22;;;;;;;;;;5081824;28;20048;-79
2023/05/11 03:29:38;;;;;;;126.90;34.35;;;;;;;;;;5108033;27;20109;-78
2023/05/11 03:32:04;;;;;;;179.77;38.80;;;;;;;;;;5080161;28;20044;-78
2023/05/11 03:34:31;;;;;;;153.65;36.70;;;;;;;;;;5090519;28;20063;-79
2023/05/11 03:36:58;;;;;;;99.53;34.92;;;;;;;;;;5084896;28;20694;-78
2023/05/11 03:39:24;;;;;;;341.55;43.47;;;;;;;;;;5099044;27;20803;-79
2023/05/11 03:41:51;;;;;;;405.05;46.65;;;;;;;;;;5081960;28;20037;-79
2023/05/11 03:44:19;;;;;;;179.85;38.17;;;;;;;;;;5115186;27;20040;-79
2023/05/11 03:46:46;;;;;;;226.68;37.45;;;;;;;;;;5066311;28;20070;-80
2023/05/11 03:49:13;;;;;;;227.73;37.35;;;;;;;;;;5078324;28;20054;-80
2023/05/11 03:51:39;;;;;;;282.25;36.22;;;;;;;;;;5078397;28;20081;-80
2023/05/11 03:54:06;;;;;;;103.10;28.90;;;;;;;;;;5085568;28;20056;-78
2023/05/11 03:56:34;;;;;;;77.40;25.95;;;;;;;;;;5075668;28;20073;-79
2023/05/11 03:59:01;;;;;;;92.90;26.65;;;;;;;;;;5074789;28;20032;-79
2023/05/11 04:01:27;;;;;;;55.00;22.27;;;;;;;;;;5082724;28;20048;-80
2023/05/11 04:03:53;;;;;;;76.03;25.13;;;;;;;;;;5085387;28;20476;-79
2023/05/11 04:06:19;;;;;;;57.80;21.85;;;;;;;;;;5063892;28;20646;-79
2023/05/11 04:08:45;;;;;;;58.17;22.88;;;;;;;;;;5081613;28;20040;-79
2023/05/11 04:11:11;;;;;;;78.25;24.38;;;;;;;;;;5079719;28;20524;-78
2023/05/11 04:13:37;;;;;;;99.25;25.40;;;;;;;;;;5074123;28;20047;-79
2023/05/11 04:16:03;;;;;;;127.30;26.95;;;;;;;;;;5071790;28;20032;-79
2023/05/11 04:18:29;;;;;;;70.78;24.75;;;;;;;;;;5087521;28;20497;-78
2023/05/11 04:20:56;;;;;;;67.05;23.33;;;;;;;;;;5090846;28;20335;-79
2023/05/11 04:23:22;;;;;;;57.08;21.73;;;;;;;;;;5089932;28;20093;-79
2023/05/11 04:25:52;;;;;;;46.20;20.38;;;;;;;;;;5080417;28;20041;-79
2023/05/11 04:28:18;;;;;;;48.65;20.67;;;;;;;;;;5090953;28;20039;-78
2023/05/11 04:30:44;;;;;;;55.58;21.02;;;;;;;;;;5087812;28;20612;-80
2023/05/11 04:33:11;;;;;;;69.82;22.33;;;;;;;;;;5089948;28;20040;-80
2023/05/11 04:35:40;;;;;;;60.28;22.75;;;;;;;;;;5083475;28;20040;-79
2023/05/11 04:38:06;;;;;;;77.93;24.92;;;;;;;;;;5069922;28;20040;-78
2023/05/11 04:40:32;;;;;;;93.72;25.85;;;;;;;;;;5076598;28;20058;-78
2023/05/11 04:42:58;;;;;;;174.15;26.58;;;;;;;;;;5088632;28;20052;-79
2023/05/11 04:45:24;;;;;;;103.93;25.38;;;;;;;;;;5077818;28;20036;-79
2023/05/11 04:47:50;;;;;;;100.30;26.98;;;;;;;;;;5087943;28;20074;-80
2023/05/11 04:50:16;;;;;;;148.05;27.38;;;;;;;;;;5075576;28;20045;-80
2023/05/11 04:52:42;;;;;;;137.10;28.52;;;;;;;;;;5090092;28;20058;-79
2023/05/11 04:55:08;;;;;;;88.05;25.73;;;;;;;;;;5088438;27;20413;-79
2023/05/11 04:57:34;;;;;;;110.07;26.02;;;;;;;;;;5082800;28;20127;-80
2023/05/11 05:00:00;;;;;;;205.50;28.75;;;;;;;;;;5090305;27;20122;-79
2023/05/11 05:02:26;;;;;;;87.68;25.45;;;;;;;;;;5086642;28;20155;-79
2023/05/11 05:04:52;;;;;;;199.02;29.15;;;;;;;;;;5085257;28;20078;-78
2023/05/11 05:07:18;;;;;;;142.35;29.42;;;;;;;;;;5087438;28;20036;-78
2023/05/11 05:09:44;;;;;;;242.80;33.83;;;;;;;;;;5085560;28;20529;-79
2023/05/11 05:12:10;;;;;;;312.02;35.75;;;;;;;;;;5089510;28;20126;-80
2023/05/11 05:14:36;;;;;;;166.60;31.45;;;;;;;;;;5101493;27;20040;-78
2023/05/11 05:17:02;;;;;;;245.93;35.15;;;;;;;;;;5093738;28;20054;-78
2023/05/11 05:19:28;;;;;;;234.20;33.15;;;;;;;;;;5084109;28;20124;-78
2023/05/11 05:21:54;;;;;;;209.82;32.90;;;;;;;;;;5100883;28;20113;-78
2023/05/11 05:24:20;;;;;;;81.45;28.45;;;;;;;;;;5070589;28;20490;-78
2023/05/11 05:26:46;;;;;;;196.25;32.38;;;;;;;;;;5084461;28;20491;-79
2023/05/11 05:29:12;;;;;;;241.00;35.70;;;;;;;;;;5065025;28;20725;-80
2023/05/11 05:31:38;;;;;;;265.63;35.83;;;;;;;;;;5069594;28;20052;-78
2023/05/11 05:34:04;;;;;;;216.90;35.45;;;;;;;;;;5071669;28;20048;-79
2023/05/11 05:36:31;;;;;;;226.07;37.00;;;;;;;;;;5085750;28;20090;-80
2023/05/11 05:38:57;;;;;;;143.60;33.42;;;;;;;;;;5072507;28;20496;-80
2023/05/11 05:41:23;;;;;;;246.43;37.83;;;;;;;;;;5103896;27;20042;-79
2023/05/11 05:43:50;;;;;;;176.40;36.40;;;;;;;;;;5073913;28;20430;-80
2023/05/11 05:46:16;;;;;;;199.13;42.15;;;;;;;;;;5089247;28;20115;-79
2023/05/11 05:48:42;;;;;;;121.30;35.53;;;;;;;;;;5089374;28;20655;-79
2023/05/11 05:51:08;;;;;;;437.25;53.22;;;;;;;;;;5065546;28;20063;-79
2023/05/11 05:53:34;;;;;;;221.63;41.35;;;;;;;;;;5088097;28;20499;-79
2023/05/11 05:56:00;;;;;;;161.23;37.50;;;;;;;;;;5089562;28;20123;-79
2023/05/11 05:58:26;;;;;;;124.57;36.47;;;;;;;;;;5102743;27;20044;-79
2023/05/11 06:00:52;;;;;;;169.68;38.03;;;;;;;;;;5085047;28;20055;-78
2023/05/11 06:03:18;;;;;;;89.53;33.45;;;;;;;;;;5073606;28;21305;-79
2023/05/11 06:05:44;;;;;;;136.43;34.38;;;;;;;;;;5083773;28;20105;-80
2023/05/11 06:08:10;;;;;;;76.93;27.92;;;;;;;;;;5078512;28;20506;-80
2023/05/11 06:10:36;;;;;;;100.15;31.52;;;;;;;;;;5079650;28;20080;-79
2023/05/11 06:13:02;;;;;;;98.22;28.45;;;;;;;;;;5085792;28;20070;-79
2023/05/11 06:15:28;;;;;;;106.00;30.77;;;;;;;;;;5084215;28;20484;-79
2023/05/11 06:17:54;;;;;;;87.03;29.58;;;;;;;;;;5074996;28;20506;-78
2023/05/11 06:20:22;;;;;;;120.22;29.65;;;;;;;;;;5086240;28;20373;-79
2023/05/11 06:22:48;;;;;;;109.80;31.70;;;;;;;;;;5070271;28;20067;-77
2023/05/11 06:25:14;;;;;;;144.70;31.35;;;;;;;;;;5078941;28;20055;-76
2023/05/11 06:27:41;;;;;;;108.22;30.02;;;;;;;;;;5078697;28;20054;-77
2023/05/11 06:30:07;;;;;;;64.10;26.67;;;;;;;;;;5077503;28;20495;-79
2023/05/11 06:32:33;;;;;;;118.75;30.95;;;;;;;;;;5076298;28;20048;-79
2023/05/11 06:34:59;;;;;;;123.38;31.50;;;;;;;;;;5081698;28;20520;-80
2023/05/11 06:37:25;;;;;;;110.78;30.40;;;;;;;;;;5060422;28;20048;-79
2023/05/11 06:39:51;;;;;;;121.95;33.00;;;;;;;;;;5099532;28;20051;-79
2023/05/11 06:42:17;;;;;;;66.93;26.83;;;;;;;;;;5078794;28;20047;-79
2023/05/11 06:44:43;;;;;;;52.83;25.38;;;;;;;;;;5083342;28;20093;-79
2023/05/11 06:47:09;;;;;;;54.92;25.98;;;;;;;;;;5080896;28;20074;-79
2023/05/11 06:49:35;;;;;;;161.45;30.65;;;;;;;;;;5075726;28;20063;-76
2023/05/11 06:52:01;;;;;;;60.25;24.85;;;;;;;;;;5084835;28;20626;-80
2023/05/11 06:54:27;;;;;;;54.08;24.63;;;;;;;;;;5071598;28;20040;-81
2023/05/11 06:56:53;;;;;;;42.03;22.58;;;;;;;;;;5082914;28;20038;-80
2023/05/11 06:59:19;;;;;;;41.15;22.25;;;;;;;;;;5088996;28;20044;-78
2023/05/11 07:01:45;;;;;;;37.72;20.20;;;;;;;;;;5085699;28;20025;-79
2023/05/11 07:04:11;;;;;;;34.88;19.83;;;;;;;;;;5087078;28;20047;-79
2023/05/11 07:06:37;;;;;;;29.58;18.15;;;;;;;;;;5087733;28;20043;-79
2023/05/11 07:09:03;;;;;;;32.22;19.77;;;;;;;;;;5059569;28;20403;-79
2023/05/11 07:11:30;;;;;;;31.27;18.08;;;;;;;;;;5080069;28;20044;-78
2023/05/11 07:13:56;;;;;;;30.40;18.55;;;;;;;;;;5082054;28;20403;-80
2023/05/11 07:16:22;;;;;;;24.27;17.00;;;;;;;;;;5092043;28;20048;-80
2023/05/11 07:18:48;;;;;;;27.10;17.08;;;;;;;;;;5082661;28;20035;-80
2023/05/11 07:21:14;;;;;;;24.67;16.25;;;;;;;;;;5085735;28;20974;-78
2023/05/11 07:23:41;;;;;;;24.88;16.48;;;;;;;;;;5085366;28;20151;-79
2023/05/11 07:26:08;;;;;;;26.42;17.17;;;;;;;;;;5092392;28;20050;-76
2023/05/11 07:28:37;;;;;;;22.10;15.60;;;;;;;;;;5074946;28;20123;-77
2023/05/11 07:31:03;;;;;;;17.92;13.95;;;;;;;;;;5083567;28;20505;-77
2023/05/11 07:33:29;;;;;;;15.93;12.93;;;;;;;;;;5091318;28;20043;-76
2023/05/11 07:35:55;;;;;;;18.23;14.18;;;;;;;;;;5126442;27;20077;-77
2023/05/11 07:38:21;;;;;;;18.30;14.02;;;;;;;;;;5092266;28;20051;-78
2023/05/11 07:40:47;;;;;;;22.98;14.05;;;;;;;;;;5088952;28;20047;-77
2023/05/11 07:43:13;;;;;;;26.45;14.57;;;;;;;;;;5092103;28;20290;-77
2023/05/11 07:45:39;;;;;;;18.75;12.65;;;;;;;;;;5066056;28;20051;-76
2023/05/11 07:48:05;;;;;;;20.27;13.40;;;;;;;;;;5080273;28;20324;-77
2023/05/11 07:50:31;;;;;;;23.45;14.80;;;;;;;;;;5091380;28;20047;-77
2023/05/11 07:52:57;;;;;;;29.75;15.38;;;;;;;;;;5087092;28;20051;-78
2023/05/11 07:55:28;;;;;;;24.92;15.13;;;;;;;;;;5084303;28;20108;-81
2023/05/11 07:57:54;;;;;;;24.70;14.02;;;;;;;;;;5069689;27;20056;-81
2023/05/11 08:00:21;;;;;;;24.23;15.32;;;;;;;;;;5075557;28;20032;-80
2023/05/11 08:02:47;;;;;;;28.95;15.68;;;;;;;;;;5090111;27;20059;-81
2023/05/11 08:05:13;;;;;;;31.85;15.80;;;;;;;;;;5087885;28;20043;-81
2023/05/11 08:07:39;;;;;;;24.85;15.32;;;;;;;;;;5081306;28;20410;-81
2023/05/11 08:10:05;;;;;;;25.30;15.18;;;;;;;;;;5115802;27;20048;-76
2023/05/11 08:12:31;;;;;;;22.17;15.48;;;;;;;;;;5081172;28;20047;-76
2023/05/11 08:14:57;;;;;;;24.95;16.15;;;;;;;;;;5075968;28;20044;-76
2023/05/11 08:17:23;;;;;;;20.50;15.32;;;;;;;;;;5080078;28;20035;-77
2023/05/11 08:19:50;;;;;;;21.25;15.70;;;;;;;;;;5078146;28;20514;-77
2023/05/11 08:22:16;;;;;;;20.33;14.82;;;;;;;;;;5071376;28;20084;-76
2023/05/11 08:24:42;;;;;;;20.05;15.38;;;;;;;;;;5089855;28;20116;-79
2023/05/11 08:27:08;;;;;;;21.50;16.05;;;;;;;;;;5063097;28;20047;-77
2023/05/11 08:29:34;;;;;;;24.65;17.60;;;;;;;;;;5073693;28;20071;-76
2023/05/11 08:32:01;;;;;;;23.20;16.92;;;;;;;;;;5110522;27;20565;-77
2023/05/11 08:34:27;;;;;;;22.05;17.38;;;;;;;;;;5072106;28;20061;-77
2023/05/11 08:36:54;;;;;;;20.50;16.52;;;;;;;;;;5085691;28;20043;-77
2023/05/11 08:39:21;;;;;;;22.02;16.55;;;;;;;;;;5072477;28;20043;-76
2023/05/11 08:41:58;;;;;;;21.65;16.85;;;;;;;;;;5073866;28;20055;-78
2023/05/11 08:44:25;;;;;;;21.83;16.55;;;;;;;;;;5071532;28;20519;-77
2023/05/11 08:46:53;;;;;;;22.83;16.00;;;;;;;;;;5084182;28;20062;-77
2023/05/11 08:49:19;;;;;;;19.77;15.10;;;;;;;;;;5088978;28;20040;-77
2023/05/11 08:51:45;;;;;;;20.15;15.65;;;;;;;;;;5081284;28;20055;-77
2023/05/11 08:54:11;;;;;;;24.75;17.05;;;;;;;;;;5064061;28;20044;-76
2023/05/11 08:56:39;;;;;;;25.88;18.90;;;;;;;;;;5108357;27;20166;-76
2023/05/11 08:59:05;;;;;;;33.83;21.97;;;;;;;;;;5085224;28;20027;-79
2023/05/11 09:01:31;;;;;;;29.52;20.15;;;;;;;;;;5083534;28;20455;-81
2023/05/11 09:03:57;;;;;;;26.23;19.27;;;;;;;;;;5085449;28;20051;-78
2023/05/11 09:06:24;;;;;;;26.35;18.73;;;;;;;;;;5084535;28;20100;-80
2023/05/11 09:08:50;;;;;;;30.35;20.17;;;;;;;;;;5080573;28;20035;-77
2023/05/11 09:11:20;;;;;;;37.30;23.85;;;;;;;;;;5095967;27;20051;-77
2023/05/11 09:13:46;;;;;;;40.22;23.67;;;;;;;;;;5078000;28;20047;-77
2023/05/11 09:16:12;;;;;;;32.22;21.52;;;;;;;;;;5089017;28;20051;-77
2023/05/11 09:18:48;;;;;;;39.03;21.58;;;;;;;;;;5074843;28;20079;-78
2023/05/11 09:21:14;;;;;;;35.33;22.50;;;;;;;;;;5081664;28;20063;-78
2023/05/11 09:23:40;;;;;;;43.20;25.42;;;;;;;;;;5085169;27;20039;-78
2023/05/11 09:26:16;;;;;;;42.55;25.40;;;;;;;;;;5071817;28;20062;-78
2023/05/11 09:28:49;;;;;;;42.53;25.30;;;;;;;;;;5083091;28;20142;-79
2023/05/11 09:31:35;;;;;;;40.92;24.15;;;;;;;;;;5072462;28;20044;-78
2023/05/11 09:34:13;;;;;;;43.72;24.73;;;;;;;;;;5120554;27;20052;-83
2023/05/11 09:36:39;;;;;;;38.75;22.23;;;;;;;;;;5092554;27;20407;-81
2023/05/11 09:39:06;;;;;;;30.17;18.95;;;;;;;;;;5085875;28;20035;-81
2023/05/11 09:41:32;;;;;;;31.48;18.88;;;;;;;;;;5084066;28;20756;-81
2023/05/11 09:44:09;;;;;;;30.35;17.83;;;;;;;;;;5080672;28;20155;-79
2023/05/11 09:46:36;;;;;;;30.27;19.02;;;;;;;;;;5083550;28;20040;-77
2023/05/11 09:49:02;;;;;;;26.50;17.52;;;;;;;;;;5084450;27;20106;-80
2023/05/11 09:51:36;;;;;;;27.92;18.20;;;;;;;;;;5107228;27;20060;-79
2023/05/11 09:54:15;;;;;;;21.90;16.55;;;;;;;;;;5118015;27;20051;-79
2023/05/11 09:56:47;;;;;;;25.05;16.90;;;;;;;;;;5082052;28;20055;-78
2023/05/11 09:59:17;;;;;;;16.50;14.70;;;;;;;;;;5059509;28;20147;-78
2023/05/11 10:01:43;;;;;;;17.33;15.48;;;;;;;;;;5077395;28;20052;-80
2023/05/11 10:04:09;;;;;;;19.27;15.35;;;;;;;;;;5078435;28;20469;-79
2023/05/11 10:06:44;;;;;;;17.58;15.20;;;;;;;;;;5098934;28;20079;-78
2023/05/11 10:09:11;;;;;;;16.83;14.27;;;;;;;;;;5069452;28;20052;-78
2023/05/11 10:11:38;;;;;;;15.98;14.27;;;;;;;;;;5100777;28;20048;-77
2023/05/11 10:14:05;;;;;;;17.58;14.27;;;;;;;;;;5085727;28;20132;-79
2023/05/11 10:16:31;;;;;;;16.20;13.82;;;;;;;;;;5054860;28;20045;-78
2023/05/11 10:18:57;;;;;;;15.02;13.00;;;;;;;;;;5105364;27;20040;-80
2023/05/11 10:21:23;;;;;;;14.88;13.13;;;;;;;;;;5065381;28;20048;-79
2023/05/11 10:23:49;;;;;;;14.25;12.75;;;;;;;;;;5074269;28;20420;-80
2023/05/11 10:26:16;;;;;;;13.07;11.70;;;;;;;;;;5065821;28;20044;-81
2023/05/11 10:28:42;;;;;;;14.25;12.43;;;;;;;;;;5110595;27;20453;-79
2023/05/11 10:31:08;;;;;;;17.80;13.65;;;;;;;;;;5080205;28;20143;-79
2023/05/11 10:33:35;;;;;;;15.25;12.75;;;;;;;;;;5097713;27;20649;-79
2023/05/11 10:36:02;;;;;;;16.60;13.68;;;;;;;;;;5088182;28;20047;-79
2023/05/11 10:38:28;;;;;;;13.45;12.02;;;;;;;;;;5081453;28;20050;-78
2023/05/11 10:40:58;;;;;;;17.60;13.77;;;;;;;;;;5066810;28;20470;-80
2023/05/11 10:43:31;;;;;;;14.20;12.80;;;;;;;;;;5069489;28;20075;-79
2023/05/11 10:46:23;;;;;;;14.00;12.50;;;;;;;;;;5103380;27;20057;-79
2023/05/11 10:48:52;;;;;;;14.73;12.80;;;;;;;;;;5091706;28;20057;-80
2023/05/11 10:51:18;;;;;;;13.98;12.48;;;;;;;;;;5068259;28;20071;-80
2023/05/11 10:54:03;;;;;;;13.32;11.32;;;;;;;;;;5064441;28;20033;-78
2023/05/11 10:56:33;;;;;;;13.10;11.00;;;;;;;;;;5089707;28;20050;-79
2023/05/11 10:59:20;;;;;;;13.45;10.88;;;;;;;;;;5086697;28;20082;-79
2023/05/11 11:01:50;;;;;;;14.25;11.75;;;;;;;;;;5093384;27;20109;-80
2023/05/11 11:04:19;;;;;;;11.68;10.55;;;;;;;;;;5083846;28;20036;-77
2023/05/11 11:06:45;;;;;;;12.35;10.18;;;;;;;;;;5074239;28;20036;-77
2023/05/11 11:09:14;;;;;;;11.02;9.70;;;;;;;;;;5077269;28;20461;-78
2023/05/11 11:11:44;;;;;;;12.60;9.48;;;;;;;;;;5106020;27;20087;-79
2023/05/11 11:14:11;;;;;;;11.52;9.15;;;;;;;;;;5087175;28;20048;-79
2023/05/11 11:16:37;;;;;;;11.38;9.73;;;;;;;;;;5101121;27;20131;-78
2023/05/11 11:19:22;;;;;;;10.80;9.30;;;;;;;;;;5066710;28;20032;-77
2023/05/11 11:21:48;;;;;;;11.85;9.27;;;;;;;;;;5077206;28;20043;-79
2023/05/11 11:24:33;;;;;;;10.35;8.20;;;;;;;;;;5067502;28;20047;-79
2023/05/11 11:26:59;;;;;;;9.27;7.75;;;;;;;;;;5081841;28;20128;-76
2023/05/11 11:29:25;;;;;;;9.60;7.07;;;;;;;;;;5111358;27;20123;-76
2023/05/11 11:31:51;;;;;;;7.40;6.20;;;;;;;;;;5073209;28;20912;-77
2023/05/11 11:34:26;;;;;;;7.07;6.38;;;;;;;;;;5108932;27;20040;-77
2023/05/11 11:36:59;;;;;;;7.75;6.05;;;;;;;;;;5082343;28;20052;-78
2023/05/11 11:39:26;;;;;;;8.38;6.00;;;;;;;;;;5076668;28;20044;-79
2023/05/11 11:42:02;;;;;;;8.55;5.55;;;;;;;;;;5081747;28;20484;-79
2023/05/11 11:44:30;;;;;;;6.10;4.55;;;;;;;;;;5103336;27;20125;-78
2023/05/11 11:47:14;;;;;;;6.25;4.78;;;;;;;;;;5087442;28;20723;-79
2023/05/11 11:49:42;;;;;;;8.75;5.47;;;;;;;;;;5091122;27;20135;-79
2023/05/11 11:52:31;;;;;;;6.03;4.80;;;;;;;;;;5067231;28;20495;-78
2023/05/11 11:55:01;;;;;;;6.10;3.90;;;;;;;;;;5069791;28;20977;-77
2023/05/11 11:57:31;;;;;;;4.85;4.10;;;;;;;;;;5070545;28;20036;-79
2023/05/11 11:59:57;;;;;;;8.00;4.75;;;;;;;;;;5076965;28;20055;-77
2023/05/11 12:02:24;;;;;;;5.40;4.63;;;;;;;;;;5059314;28;20048;-78
2023/05/11 12:04:57;;;;;;;6.18;4.00;;;;;;;;;;5083103;28;20071;-79
2023/05/11 12:07:24;;;;;;;5.50;3.88;;;;;;;;;;5121096;27;20391;-78
2023/05/11 12:09:54;;;;;;;4.20;3.50;;;;;;;;;;5084751;28;20476;-78
2023/05/11 12:12:20;;;;;;;7.20;4.00;;;;;;;;;;5105390;27;20072;-78
2023/05/11 12:14:50;;;;;;;5.03;3.40;;;;;;;;;;5119614;27;20053;-78
2023/05/11 12:17:23;;;;;;;5.18;3.38;;;;;;;;;;5075457;28;20044;-80
2023/05/11 12:19:49;;;;;;;3.85;3.03;;;;;;;;;;5110861;27;20105;-77
2023/05/11 12:22:21;;;;;;;3.25;2.55;;;;;;;;;;5086451;28;20055;-78
2023/05/11 12:24:46;;;;;;;5.10;2.60;;;;;;;;;;5076342;28;20035;-80
2023/05/11 12:27:13;;;;;;;2.88;2.58;;;;;;;;;;5077496;28;20051;-79
2023/05/11 12:29:40;;;;;;;3.58;2.70;;;;;;;;;;5082385;28;20047;-78
2023/05/11 12:32:11;;;;;;;5.18;2.90;;;;;;;;;;5081703;28;20048;-77
2023/05/11 12:34:37;;;;;;;4.03;2.97;;;;;;;;;;5082340;28;20068;-77
2023/05/11 12:37:05;;;;;;;3.28;2.60;;;;;;;;;;5078242;28;20129;-77
2023/05/11 12:39:31;;;;;;;3.63;2.40;;;;;;;;;;5084992;28;20036;-79
2023/05/11 12:41:57;;;;;;;3.63;2.40;;;;;;;;;;5089385;27;20092;-79
2023/05/11 12:44:24;;;;;;;3.55;2.30;;;;;;;;;;5082323;28;20039;-78
2023/05/11 12:46:51;;;;;;;3.40;2.47;;;;;;;;;;5078065;28;20059;-78
2023/05/11 12:49:22;;;;;;;4.72;2.40;;;;;;;;;;5065812;28;20040;-78
2023/05/11 12:52:00;;;;;;;3.45;2.30;;;;;;;;;;5084608;28;20037;-80
2023/05/11 12:54:26;;;;;;;3.03;2.37;;;;;;;;;;5087850;27;20048;-82
2023/05/11 12:56:53;;;;;;;3.50;2.80;;;;;;;;;;5081033;28;20072;-84
2023/05/11 12:59:25;;;;;;;3.88;2.20;;;;;;;;;;5077239;28;20146;-80
2023/05/11 13:01:51;;;;;;;2.63;2.00;;;;;;;;;;5082781;28;20063;-81
2023/05/11 13:04:17;;;;;;;2.67;1.45;;;;;;;;;;5075463;28;20046;-83
2023/05/11 13:06:46;;;;;;;3.33;1.80;;;;;;;;;;5059600;28;20142;-80
2023/05/11 13:09:21;;;;;;;7.82;2.10;;;;;;;;;;5078288;28;21687;-83
2023/05/11 13:11:47;;;;;;;5.43;1.75;;;;;;;;;;5085001;27;20080;-79
2023/05/11 13:14:16;;;;;;;3.40;1.60;;;;;;;;;;5066420;28;20155;-81
2023/05/11 13:16:51;;;;;;;2.95;1.77;;;;;;;;;;5078799;28;20048;-81
2023/05/11 13:19:26;;;;;;;4.15;1.75;;;;;;;;;;5080041;28;20097;-82
2023/05/11 13:21:53;;;;;;;3.03;1.80;;;;;;;;;;5080311;28;20039;-79
2023/05/11 13:24:20;;;;;;;5.63;2.65;;;;;;;;;;5072623;28;20028;-80
2023/05/11 13:26:46;;;;;;;6.68;1.70;;;;;;;;;;5071252;28;20631;-79
2023/05/11 13:29:12;;;;;;;2.30;1.27;;;;;;;;;;5092711;27;20035;-81
2023/05/11 13:31:44;;;;;;;4.28;1.35;;;;;;;;;;5063486;28;20128;-82
2023/05/11 13:34:10;;;;;;;1.70;1.20;;;;;;;;;;5071972;28;20066;-81
2023/05/11 13:36:36;;;;;;;2.17;1.95;;;;;;;;;;5084430;28;20055;-83
2023/05/11 13:39:02;;;;;;;2.83;2.40;;;;;;;;;;5084911;28;20066;-83
2023/05/11 13:41:28;;;;;;;5.15;2.75;;;;;;;;;;5080484;28;20055;-82
2023/05/11 13:43:54;;;;;;;5.22;2.90;;;;;;;;;;5076053;28;20089;-83
2023/05/11 13:46:20;;;;;;;4.40;3.17;;;;;;;;;;5118434;27;20047;-82
2023/05/11 13:48:50;;;;;;;4.00;2.92;;;;;;;;;;5085005;28;20047;-77
2023/05/11 13:51:16;;;;;;;5.32;3.05;;;;;;;;;;5079542;28;20056;-75
2023/05/11 13:53:43;;;;;;;8.55;4.32;;;;;;;;;;5080490;28;20058;-75
2023/05/11 13:56:10;;;;;;;6.45;4.10;;;;;;;;;;5081723;28;20442;-76
2023/05/11 13:58:36;;;;;;;5.95;4.07;;;;;;;;;;5082422;28;20087;-78
2023/05/11 14:01:02;;;;;;;8.32;4.35;;;;;;;;;;5082001;28;20127;-77
2023/05/11 14:03:30;;;;;;;7.25;4.72;;;;;;;;;;5070657;28;20040;-75
2023/05/11 14:05:56;;;;;;;5.18;4.45;;;;;;;;;;5086551;28;20055;-78
2023/05/11 14:08:22;;;;;;;6.95;4.47;;;;;;;;;;5081826;28;20373;-77
2023/05/11 14:10:48;;;;;;;7.18;4.18;;;;;;;;;;5074449;28;20044;-78
2023/05/11 14:13:14;;;;;;;4.38;3.70;;;;;;;;;;5097007;28;20588;-77
2023/05/11 14:15:40;;;;;;;3.78;3.20;;;;;;;;;;5083589;28;20515;-78
2023/05/11 14:18:06;;;;;;;3.58;2.67;;;;;;;;;;5078819;28;20035;-77
2023/05/11 14:20:34;;;;;;;4.40;3.08;;;;;;;;;;5075708;28;20775;-77
2023/05/11 14:23:00;;;;;;;5.40;3.08;;;;;;;;;;5089667;28;20036;-78
2023/05/11 14:25:26;;;;;;;5.57;2.67;;;;;;;;;;5084151;28;20067;-78